Time;durP1;ratioP1;P1;durP2;ratioP2;P2;SDS_P1;SDS_P2;PMS_P1;PMS_P2;Temp;Humidity;BMP_temperature;BMP_pressure;BME280_temperature;BME280_humidity;BME280_pressure;Samples;Min_cycle;Max_cycle;Signal;HPM_P1;HPM_P2
2022/06/04 00:00:14;;;;;;;0.00;0.00;;;12.10;99.90;;;;;;4961387;28;20039;-62
2022/06/04 00:02:43;;;;;;;0.00;0.00;;;12.10;99.90;;;;;;4961540;28;20046;-62
2022/06/04 00:05:11;;;;;;;0.00;0.00;;;12.10;99.90;;;;;;4961917;28;20051;-62
2022/06/04 00:07:37;;;;;;;0.00;0.00;;;12.10;99.90;;;;;;4961061;28;20141;-61
2022/06/04 00:15:46;;;;;;;0.00;0.00;;;11.90;99.90;;;;;;4961998;28;20057;-61
2022/06/04 00:18:12;;;;;;;0.00;0.00;;;12.00;99.90;;;;;;4961444;28;20046;-61
2022/06/04 00:20:38;;;;;;;0.00;0.00;;;11.90;99.90;;;;;;4961321;28;20074;-61
2022/06/04 00:23:06;;;;;;;0.00;0.00;;;11.90;99.90;;;;;;4963946;28;20050;-61
2022/06/04 00:25:35;;;;;;;0.00;0.00;;;11.90;99.90;;;;;;4963606;28;20062;-62
2022/06/04 00:28:03;;;;;;;0.00;0.00;;;11.90;99.90;;;;;;4964092;28;20059;-61
2022/06/04 00:30:30;;;;;;;0.00;0.00;;;11.90;99.90;;;;;;4965157;28;20651;-62
2022/06/04 00:32:56;;;;;;;0.00;0.00;;;11.90;99.90;;;;;;4964907;28;20055;-62
2022/06/04 00:35:23;;;;;;;0.00;0.00;;;12.00;99.90;;;;;;4964658;28;20047;-62
2022/06/04 00:37:49;;;;;;;0.00;0.00;;;12.00;99.90;;;;;;4964964;28;20086;-62
2022/06/04 00:40:47;;;;;;;0.00;0.00;;;11.90;99.90;;;;;;4964831;28;20429;-63
2022/06/04 00:43:13;;;;;;;0.00;0.00;;;11.90;99.90;;;;;;4965669;28;20387;-61
2022/06/04 00:46:12;;;;;;;0.00;0.00;;;11.80;99.90;;;;;;4971984;28;20115;-63
2022/06/04 00:48:38;;;;;;;0.00;0.00;;;11.80;99.90;;;;;;4964663;28;20053;-62
2022/06/04 00:51:05;;;;;;;0.00;0.00;;;11.90;99.90;;;;;;4964552;28;20499;-62
2022/06/04 00:53:33;;;;;;;0.00;0.00;;;11.80;99.90;;;;;;4964502;28;20047;-62
2022/06/04 00:56:07;;;;;;;0.00;0.00;;;11.90;99.90;;;;;;4963915;28;20038;-62
2022/06/04 00:58:54;;;;;;;0.00;0.00;;;11.80;99.90;;;;;;4964322;28;20125;-61
2022/06/04 01:01:19;;;;;;;0.00;0.00;;;11.80;99.90;;;;;;4964705;28;20055;-61
2022/06/04 01:03:56;;;;;;;0.00;0.00;;;11.80;99.90;;;;;;5026157;23;20583;-62
2022/06/04 01:06:37;;;;;;;0.00;0.00;;;11.80;99.90;;;;;;5031677;28;20045;-61
2022/06/04 01:09:12;;;;;;;0.00;0.00;;;11.80;99.90;;;;;;5043206;28;20063;-61
2022/06/04 01:12:10;;;;;;;0.00;0.00;;;11.80;99.90;;;;;;5041959;28;20045;-62
2022/06/04 01:15:12;;;;;;;0.00;0.00;;;11.80;99.90;;;;;;5041996;28;20064;-62
2022/06/04 01:17:46;;;;;;;0.00;0.00;;;11.70;99.90;;;;;;5042718;28;20137;-62
2022/06/04 01:20:38;;;;;;;0.00;0.00;;;11.80;99.90;;;;;;5043464;28;20843;-61
2022/06/04 01:23:49;;;;;;;0.00;0.00;;;11.70;99.90;;;;;;5042512;28;20068;-61
2022/06/04 01:26:48;;;;;;;0.00;0.00;;;11.70;99.90;;;;;;5042557;28;20060;-61
2022/06/04 01:29:22;;;;;;;0.00;0.00;;;11.70;99.90;;;;;;5043175;28;20119;-61
2022/06/04 01:32:00;;;;;;;0.00;0.00;;;11.70;99.90;;;;;;5040952;28;20095;-61
2022/06/04 01:34:36;;;;;;;0.00;0.00;;;11.70;99.90;;;;;;5041735;28;20049;-61
2022/06/04 01:37:11;;;;;;;0.00;0.00;;;11.70;99.90;;;;;;5041919;28;20084;-61
2022/06/04 01:42:34;;;;;;;0.00;0.00;;;11.60;99.90;;;;;;5042012;28;20412;-61
2022/06/04 01:45:04;;;;;;;0.00;0.00;;;11.60;99.90;;;;;;5037301;28;20129;-61
2022/06/04 01:47:32;;;;;;;0.00;0.00;;;11.60;99.90;;;;;;5033612;28;20122;-62
2022/06/04 01:49:59;;;;;;;0.00;0.00;;;11.60;99.90;;;;;;5042060;28;20470;-62
2022/06/04 01:52:30;;;;;;;0.00;0.00;;;11.60;99.90;;;;;;5042056;28;20056;-61
2022/06/04 01:54:59;;;;;;;0.00;0.00;;;11.60;99.90;;;;;;5040594;28;20430;-62
2022/06/04 01:57:37;;;;;;;0.00;0.00;;;11.60;99.90;;;;;;5041450;28;20047;-61
2022/06/04 02:00:09;;;;;;;0.00;0.00;;;11.60;99.90;;;;;;5041034;28;20053;-62
2022/06/04 02:02:43;;;;;;;0.00;0.00;;;11.60;99.90;;;;;;5041241;28;20849;-63
2022/06/04 02:05:15;;;;;;;0.00;0.00;;;11.60;99.90;;;;;;5042218;28;20056;-63
2022/06/04 02:07:46;;;;;;;0.00;0.00;;;11.60;99.90;;;;;;5042486;28;20717;-61
2022/06/04 02:10:23;;;;;;;0.00;0.00;;;11.50;99.90;;;;;;5041269;28;20041;-62
2022/06/04 02:12:52;;;;;;;0.00;0.00;;;11.50;99.90;;;;;;5042078;28;20048;-61
2022/06/04 02:15:25;;;;;;;0.00;0.00;;;11.50;99.90;;;;;;5042066;28;20044;-62
2022/06/04 02:17:57;;;;;;;0.00;0.00;;;11.50;99.90;;;;;;5041843;28;20056;-61
2022/06/04 02:20:23;;;;;;;0.00;0.00;;;11.50;99.90;;;;;;5041517;28;20044;-61
2022/06/04 02:22:49;;;;;;;0.00;0.00;;;11.40;99.90;;;;;;5040984;28;20123;-61
2022/06/04 02:25:15;;;;;;;0.00;0.00;;;11.40;99.90;;;;;;5041482;28;20186;-57
2022/06/04 02:27:43;;;;;;;0.00;0.00;;;11.40;99.90;;;;;;5042169;28;20044;-59
2022/06/04 02:30:10;;;;;;;0.00;0.00;;;11.40;99.90;;;;;;5041714;28;20403;-61
2022/06/04 02:33:01;;;;;;;0.00;0.00;;;11.40;99.90;;;;;;5039537;28;20055;-62
2022/06/04 02:35:34;;;;;;;0.30;0.13;;;11.40;99.90;;;;;;5041552;28;20048;-61
2022/06/04 02:38:23;;;;;;;0.00;0.00;;;11.50;99.90;;;;;;5041097;28;20071;-61
2022/06/04 02:41:06;;;;;;;0.00;0.00;;;11.40;99.90;;;;;;5040813;28;20051;-62
2022/06/04 02:43:55;;;;;;;0.00;0.00;;;11.40;99.90;;;;;;5041149;28;20049;-61
2022/06/04 02:46:31;;;;;;;0.00;0.00;;;11.30;99.90;;;;;;5031862;28;20048;-61
2022/06/04 02:49:08;;;;;;;0.00;0.00;;;11.40;99.90;;;;;;5021226;28;20149;-61
2022/06/04 02:51:38;;;;;;;0.00;0.00;;;11.40;99.90;;;;;;5021350;28;20140;-61
2022/06/04 02:54:13;;;;;;;0.00;0.00;;;11.40;99.90;;;;;;5021624;28;20053;-61
2022/06/04 02:56:42;;;;;;;0.00;0.00;;;11.40;99.90;;;;;;5021471;28;20397;-61
2022/06/04 02:59:12;;;;;;;0.00;0.00;;;11.30;99.90;;;;;;5020722;28;20053;-61
2022/06/04 03:01:43;;;;;;;0.00;0.00;;;11.30;99.90;;;;;;5020994;28;20041;-62
2022/06/04 03:04:10;;;;;;;0.00;0.00;;;11.30;99.90;;;;;;5020844;28;20087;-61
2022/06/04 03:06:36;;;;;;;0.00;0.00;;;11.30;99.90;;;;;;5020189;28;20129;-62
2022/06/04 03:09:07;;;;;;;0.00;0.00;;;11.30;99.90;;;;;;5020679;28;20049;-61
2022/06/04 03:11:40;;;;;;;0.00;0.00;;;11.30;99.90;;;;;;5020028;28;20753;-62
2022/06/04 03:14:06;;;;;;;0.00;0.00;;;11.30;99.90;;;;;;5035905;28;20041;-61
2022/06/04 03:16:36;;;;;;;0.00;0.00;;;11.20;99.90;;;;;;5020740;28;20076;-62
2022/06/04 03:19:04;;;;;;;0.00;0.00;;;11.20;99.90;;;;;;5020890;28;20072;-62
2022/06/04 03:21:30;;;;;;;0.00;0.00;;;11.20;99.90;;;;;;5020279;28;20049;-61
2022/06/04 03:23:55;;;;;;;0.00;0.00;;;11.20;99.90;;;;;;5020867;28;20038;-61
2022/06/04 03:26:21;;;;;;;0.00;0.00;;;11.20;99.90;;;;;;5020255;28;20052;-62
2022/06/04 03:28:47;;;;;;;0.00;0.00;;;11.20;99.90;;;;;;5020875;28;20491;-61
2022/06/04 03:31:13;;;;;;;0.00;0.00;;;11.20;99.90;;;;;;5020549;28;20041;-62
2022/06/04 03:33:39;;;;;;;0.00;0.00;;;11.20;99.90;;;;;;5020602;28;20037;-61
2022/06/04 03:36:08;;;;;;;0.00;0.00;;;11.20;99.90;;;;;;5020676;28;20048;-61
2022/06/04 03:38:33;;;;;;;0.00;0.00;;;11.20;99.90;;;;;;5020085;28;20040;-61
2022/06/04 03:40:59;;;;;;;0.00;0.00;;;11.20;99.90;;;;;;5019993;28;20041;-60
2022/06/04 03:43:25;;;;;;;0.00;0.00;;;11.20;99.90;;;;;;5020769;28;20045;-61
2022/06/04 03:45:50;;;;;;;0.00;0.00;;;11.20;99.90;;;;;;5029368;28;20119;-62
2022/06/04 03:48:16;;;;;;;0.00;0.00;;;11.40;99.90;;;;;;5022217;28;20049;-62
2022/06/04 03:50:42;;;;;;;0.00;0.00;;;11.30;99.90;;;;;;5021131;28;20044;-60
2022/06/04 03:53:07;;;;;;;0.00;0.00;;;11.40;99.90;;;;;;5020800;28;20045;-62
2022/06/04 03:55:33;;;;;;;0.00;0.00;;;11.40;99.90;;;;;;5019981;28;20113;-61
2022/06/04 03:57:59;;;;;;;0.00;0.00;;;11.40;99.90;;;;;;5022478;28;20575;-61
2022/06/04 04:00:31;;;;;;;0.00;0.00;;;11.40;99.90;;;;;;5024280;28;20056;-63
2022/06/04 04:03:04;;;;;;;0.00;0.00;;;11.40;99.90;;;;;;5024387;28;20622;-61
2022/06/04 04:05:33;;;;;;;0.00;0.00;;;11.30;99.90;;;;;;5024218;28;20046;-61
2022/06/04 04:08:00;;;;;;;0.00;0.00;;;11.40;99.90;;;;;;5024206;28;20038;-62
2022/06/04 04:10:27;;;;;;;0.00;0.00;;;11.50;99.90;;;;;;5022113;28;20037;-60
2022/06/04 04:12:53;;;;;;;0.00;0.00;;;11.50;99.90;;;;;;5039161;28;20643;-61
2022/06/04 04:15:20;;;;;;;0.20;0.20;;;11.70;99.90;;;;;;5022752;28;20045;-61
2022/06/04 04:17:47;;;;;;;0.00;0.00;;;11.70;99.90;;;;;;5024137;28;20045;-62
2022/06/04 04:20:24;;;;;;;0.00;0.00;;;11.70;99.90;;;;;;5024033;28;20047;-61
2022/06/04 04:22:51;;;;;;;0.00;0.00;;;11.70;99.90;;;;;;5023764;28;20046;-62
2022/06/04 04:25:20;;;;;;;0.00;0.00;;;11.70;99.90;;;;;;5023000;28;20049;-61
2022/06/04 04:27:46;;;;;;;0.00;0.00;;;11.70;99.90;;;;;;5023721;28;20037;-61
2022/06/04 04:30:14;;;;;;;0.00;0.00;;;11.70;99.90;;;;;;5024497;28;20365;-62
2022/06/04 04:32:41;;;;;;;0.00;0.00;;;11.70;99.90;;;;;;5023884;28;20369;-63
2022/06/04 04:35:12;;;;;;;0.00;0.00;;;11.70;99.90;;;;;;5022398;28;20524;-62
2022/06/04 04:37:38;;;;;;;0.00;0.00;;;11.80;99.90;;;;;;5023985;28;20053;-61
2022/06/04 04:40:05;;;;;;;0.00;0.00;;;11.90;99.90;;;;;;5023289;28;20049;-62
2022/06/04 04:42:31;;;;;;;0.00;0.00;;;11.90;99.90;;;;;;5023420;28;20444;-62
2022/06/04 04:44:56;;;;;;;0.00;0.00;;;12.00;99.90;;;;;;5025984;28;20049;-61
2022/06/04 04:47:22;;;;;;;0.00;0.00;;;12.00;99.90;;;;;;5032159;28;20041;-62
2022/06/04 04:49:48;;;;;;;0.00;0.00;;;12.30;99.90;;;;;;5023925;28;20077;-61
2022/06/04 04:52:13;;;;;;;0.00;0.00;;;12.70;99.90;;;;;;5022051;28;20053;-62
2022/06/04 04:54:39;;;;;;;0.00;0.00;;;13.20;99.90;;;;;;5021071;28;20081;-62
2022/06/04 04:57:05;;;;;;;0.00;0.00;;;13.60;99.90;;;;;;5023461;28;20289;-62
2022/06/04 04:59:31;;;;;;;0.00;0.00;;;13.90;99.90;;;;;;5038599;28;20095;-61
2022/06/04 05:01:57;;;;;;;0.00;0.00;;;14.30;99.90;;;;;;5022998;28;20131;-61
2022/06/04 05:04:23;;;;;;;0.00;0.00;;;14.60;99.90;;;;;;5022975;28;20061;-62
2022/06/04 05:06:48;;;;;;;0.00;0.00;;;15.20;99.90;;;;;;5023073;28;20037;-61
2022/06/04 05:09:14;;;;;;;0.00;0.00;;;14.90;99.90;;;;;;5021544;28;20179;-62
2022/06/04 05:11:40;;;;;;;0.00;0.00;;;15.00;99.90;;;;;;5022978;28;20132;-61
2022/06/04 05:14:06;;;;;;;0.08;0.08;;;15.30;99.90;;;;;;5023246;28;20146;-62
2022/06/04 05:16:35;;;;;;;0.00;0.00;;;15.30;99.90;;;;;;5021674;28;20041;-61
2022/06/04 05:19:02;;;;;;;0.00;0.00;;;15.40;99.90;;;;;;5022451;28;20049;-61
2022/06/04 05:21:44;;;;;;;0.00;0.00;;;15.60;99.90;;;;;;5022720;28;20037;-61
2022/06/04 05:24:19;;;;;;;0.00;0.00;;;15.90;99.90;;;;;;5021525;28;20116;-60
2022/06/04 05:26:46;;;;;;;0.00;0.00;;;16.10;99.90;;;;;;5023516;28;20053;-60
2022/06/04 05:29:12;;;;;;;0.00;0.00;;;16.00;99.90;;;;;;5023220;28;20399;-61
2022/06/04 05:31:39;;;;;;;0.00;0.00;;;16.10;99.90;;;;;;5022158;28;20045;-62
2022/06/04 05:34:05;;;;;;;0.00;0.00;;;16.00;99.90;;;;;;5022443;28;20117;-62
2022/06/04 05:36:32;;;;;;;0.00;0.00;;;15.90;99.90;;;;;;5022632;28;20844;-61
2022/06/04 05:38:58;;;;;;;0.00;0.00;;;16.10;99.90;;;;;;5037288;28;20045;-64
2022/06/04 05:41:25;;;;;;;0.00;0.00;;;16.10;99.90;;;;;;5022297;28;20064;-61
2022/06/04 05:43:53;;;;;;;0.00;0.00;;;16.40;99.90;;;;;;5022527;28;20180;-61
2022/06/04 05:46:20;;;;;;;0.00;0.00;;;16.40;99.90;;;;;;5033328;28;20112;-60
2022/06/04 05:48:46;;;;;;;0.00;0.00;;;16.30;99.90;;;;;;5022089;28;20060;-60
2022/06/04 05:51:18;;;;;;;0.00;0.00;;;16.40;99.90;;;;;;5022789;28;20125;-60
2022/06/04 05:53:44;;;;;;;0.00;0.00;;;16.30;99.90;;;;;;5022007;28;20468;-60
2022/06/04 05:56:21;;;;;;;0.00;0.00;;;16.50;99.90;;;;;;5021643;28;20049;-60
2022/06/04 05:58:48;;;;;;;0.00;0.00;;;16.40;99.90;;;;;;5022495;28;20388;-60
2022/06/04 06:01:15;;;;;;;0.20;0.10;;;16.40;99.90;;;;;;5022709;28;20052;-60
2022/06/04 06:03:42;;;;;;;0.00;0.00;;;16.60;99.90;;;;;;5021422;28;20112;-57
2022/06/04 06:06:15;;;;;;;0.00;0.00;;;16.80;99.90;;;;;;5022378;28;20369;-61
2022/06/04 06:08:41;;;;;;;0.00;0.00;;;16.90;99.90;;;;;;5021798;28;20120;-60
2022/06/04 06:11:09;;;;;;;0.17;0.10;;;16.90;99.90;;;;;;5021413;28;20600;-61
2022/06/04 06:13:35;;;;;;;0.00;0.00;;;16.90;99.90;;;;;;5021732;28;20377;-60
2022/06/04 06:16:11;;;;;;;0.00;0.00;;;16.80;99.90;;;;;;5021664;28;20736;-60
2022/06/04 06:18:36;;;;;;;0.05;0.05;;;17.00;99.90;;;;;;5021372;28;20459;-62
2022/06/04 06:21:13;;;;;;;0.00;0.00;;;17.30;99.90;;;;;;5036541;28;20049;-62
2022/06/04 06:23:39;;;;;;;0.08;0.05;;;17.50;99.90;;;;;;5020920;28;20041;-60
2022/06/04 06:26:11;;;;;;;0.00;0.00;;;17.80;99.90;;;;;;5021333;28;20056;-61
2022/06/04 06:28:39;;;;;;;0.00;0.00;;;17.80;99.90;;;;;;5022088;28;20081;-60
2022/06/04 06:31:06;;;;;;;0.10;0.10;;;17.90;99.90;;;;;;5021818;28;20037;-61
2022/06/04 06:33:32;;;;;;;0.00;0.00;;;17.80;99.90;;;;;;5019540;28;20141;-61
2022/06/04 06:36:01;;;;;;;0.00;0.00;;;17.70;99.90;;;;;;5021348;28;20551;-61
2022/06/04 06:38:28;;;;;;;0.00;0.00;;;17.60;99.90;;;;;;5021314;28;20464;-62
2022/06/04 06:40:55;;;;;;;0.00;0.00;;;17.40;99.90;;;;;;5029255;28;20037;-63
2022/06/04 06:43:21;;;;;;;0.00;0.00;;;17.20;99.90;;;;;;5037446;28;20458;-61
2022/06/04 06:45:48;;;;;;;0.00;0.00;;;17.20;99.90;;;;;;5032576;28;20041;-61
2022/06/04 06:48:14;;;;;;;0.00;0.00;;;17.10;99.90;;;;;;5024684;28;20092;-61
2022/06/04 06:50:40;;;;;;;0.00;0.00;;;17.10;99.90;;;;;;5020606;28;20500;-61
2022/06/04 06:53:05;;;;;;;0.00;0.00;;;16.90;99.90;;;;;;5021202;28;20500;-62
2022/06/04 06:55:31;;;;;;;0.00;0.00;;;16.60;99.90;;;;;;5020485;28;20214;-61
2022/06/04 06:57:57;;;;;;;0.00;0.00;;;16.60;99.90;;;;;;5020990;28;20053;-61
2022/06/04 07:00:24;;;;;;;0.00;0.00;;;16.50;99.90;;;;;;5019567;28;20041;-61
2022/06/04 07:02:49;;;;;;;0.00;0.00;;;16.80;99.90;;;;;;5020958;28;20053;-61
2022/06/04 07:05:15;;;;;;;0.00;0.00;;;17.20;99.90;;;;;;5021558;28;20154;-61
2022/06/04 07:07:41;;;;;;;0.00;0.00;;;17.60;99.90;;;;;;5020783;28;20045;-61
2022/06/04 07:10:07;;;;;;;0.00;0.00;;;17.70;99.90;;;;;;5020583;28;20068;-62
2022/06/04 07:12:33;;;;;;;0.00;0.00;;;17.90;99.90;;;;;;5021107;28;20050;-61
2022/06/04 07:14:59;;;;;;;0.00;0.00;;;18.00;99.90;;;;;;5019547;28;20060;-62
2022/06/04 07:17:25;;;;;;;0.00;0.00;;;18.30;99.90;;;;;;5020230;28;20318;-61
2022/06/04 07:19:50;;;;;;;0.00;0.00;;;18.50;99.90;;;;;;5020630;28;20081;-61
2022/06/04 07:22:16;;;;;;;0.00;0.00;;;18.80;99.90;;;;;;5020651;28;20081;-61
2022/06/04 07:24:42;;;;;;;0.05;0.05;;;19.00;99.90;;;;;;5018571;28;20053;-60
2022/06/04 07:27:08;;;;;;;0.00;0.00;;;18.90;99.90;;;;;;5019617;28;20726;-62
2022/06/04 07:29:35;;;;;;;0.00;0.00;;;18.90;99.90;;;;;;5020655;28;20428;-61
2022/06/04 07:32:01;;;;;;;0.00;0.00;;;19.10;99.90;;;;;;5021587;28;20041;-61
2022/06/04 07:34:26;;;;;;;0.00;0.00;;;19.10;99.90;;;;;;5031359;28;20121;-62
2022/06/04 07:36:53;;;;;;;0.00;0.00;;;19.00;99.90;;;;;;5033791;28;20179;-62
2022/06/04 07:39:19;;;;;;;0.00;0.00;;;18.80;99.90;;;;;;5034653;28;20528;-63
2022/06/04 07:41:51;;;;;;;0.00;0.00;;;19.20;99.90;;;;;;5032501;28;20400;-62
2022/06/04 07:44:18;;;;;;;0.00;0.00;;;19.20;99.90;;;;;;5032964;28;20555;-63
2022/06/04 07:46:45;;;;;;;0.00;0.00;;;19.10;99.90;;;;;;5042211;28;20044;-61
2022/06/04 07:49:12;;;;;;;0.00;0.00;;;19.40;99.90;;;;;;5033394;28;20428;-61
2022/06/04 07:51:39;;;;;;;0.00;0.00;;;19.30;99.90;;;;;;5038425;28;20037;-62
2022/06/04 07:54:08;;;;;;;0.00;0.00;;;19.50;99.90;;;;;;5043548;28;20037;-62
2022/06/04 07:56:35;;;;;;;0.00;0.00;;;19.20;99.90;;;;;;5044105;28;20045;-63
2022/06/04 07:59:00;;;;;;;0.00;0.00;;;18.80;99.90;;;;;;5043665;28;20055;-63
2022/06/04 08:01:28;;;;;;;0.43;0.13;;;19.00;99.90;;;;;;5044322;28;20062;-62
2022/06/04 08:03:54;;;;;;;0.00;0.00;;;19.00;99.90;;;;;;5043881;28;20061;-62
2022/06/04 08:06:21;;;;;;;0.00;0.00;;;19.30;99.90;;;;;;5043639;28;20044;-61
2022/06/04 08:08:50;;;;;;;0.00;0.00;;;19.40;99.90;;;;;;5043746;28;20049;-62
2022/06/04 08:11:32;;;;;;;0.00;0.00;;;19.50;99.90;;;;;;5043709;28;20084;-62
2022/06/04 08:14:08;;;;;;;0.00;0.00;;;19.50;99.90;;;;;;5043726;28;20411;-64
2022/06/04 08:16:36;;;;;;;0.00;0.00;;;19.50;99.90;;;;;;5036510;28;20449;-63
2022/06/04 08:19:03;;;;;;;0.00;0.00;;;19.50;99.90;;;;;;5029162;28;20726;-63
2022/06/04 08:21:28;;;;;;;0.00;0.00;;;19.50;99.90;;;;;;5023777;28;20072;-63
2022/06/04 08:23:54;;;;;;;0.00;0.00;;;19.30;99.90;;;;;;5023285;28;20042;-63
2022/06/04 08:26:20;;;;;;;0.00;0.00;;;19.30;99.90;;;;;;5023855;28;20115;-62
2022/06/04 08:28:45;;;;;;;0.00;0.00;;;19.30;99.90;;;;;;5023039;28;20037;-59
2022/06/04 08:31:13;;;;;;;0.00;0.00;;;19.30;99.90;;;;;;5024327;28;20048;-63
2022/06/04 08:33:39;;;;;;;0.00;0.00;;;19.50;99.90;;;;;;5023683;28;20123;-63
2022/06/04 08:36:07;;;;;;;0.00;0.00;;;19.70;99.90;;;;;;5024083;28;20116;-62
2022/06/04 08:38:33;;;;;;;0.00;0.00;;;19.80;99.90;;;;;;5022862;28;20048;-63
2022/06/04 08:41:02;;;;;;;0.00;0.00;;;19.90;99.90;;;;;;5024145;28;20037;-63
2022/06/04 08:43:51;;;;;;;0.00;0.00;;;20.10;99.90;;;;;;5020875;28;20124;-62
2022/06/04 08:46:25;;;;;;;0.00;0.00;;;19.90;99.90;;;;;;5034540;28;20170;-62
2022/06/04 08:48:51;;;;;;;0.00;0.00;;;19.90;99.90;;;;;;5023518;28;20218;-63
2022/06/04 08:51:21;;;;;;;0.00;0.00;;;20.30;99.90;;;;;;5025825;28;20270;-63
2022/06/04 08:53:51;;;;;;;0.00;0.00;;;20.40;99.90;;;;;;5033185;28;20407;-63
2022/06/04 08:59:17;;;;;;;0.00;0.00;;;20.70;99.90;;;;;;5034324;28;20522;-63
2022/06/04 09:01:48;;;;;;;0.00;0.00;;;20.90;99.90;;;;;;5023530;28;20049;-63
2022/06/04 09:04:46;;;;;;;0.00;0.00;;;20.70;99.90;;;;;;5023183;28;20061;-63
2022/06/04 09:07:25;;;;;;;0.00;0.00;;;21.00;99.90;;;;;;5023077;28;20063;-64
2022/06/04 09:10:13;;;;;;;0.00;0.00;;;21.00;99.90;;;;;;5022816;28;20433;-63
2022/06/04 09:13:18;;;;;;;0.00;0.00;;;21.00;99.90;;;;;;5019695;28;20107;-64
2022/06/04 09:15:52;;;;;;;0.40;0.22;;;21.30;99.90;;;;;;5038475;28;20065;-64
2022/06/04 09:18:27;;;;;;;0.00;0.00;;;21.10;99.90;;;;;;5030185;28;20045;-65
2022/06/04 09:20:56;;;;;;;0.00;0.00;;;21.20;99.90;;;;;;5042259;28;20059;-64
2022/06/04 09:23:36;;;;;;;0.00;0.00;;;21.20;99.90;;;;;;5039902;28;20387;-65
2022/06/04 09:26:27;;;;;;;0.00;0.00;;;21.50;99.90;;;;;;5041394;28;20056;-64
2022/06/04 09:29:11;;;;;;;0.00;0.00;;;21.20;99.90;;;;;;5041903;28;20071;-64
2022/06/04 09:32:16;;;;;;;0.00;0.00;;;21.10;99.90;;;;;;5041671;28;20462;-64
2022/06/04 09:34:51;;;;;;;0.00;0.00;;;21.20;99.90;;;;;;5043050;28;20051;-58
2022/06/04 09:37:18;;;;;;;0.00;0.00;;;21.50;99.90;;;;;;5042221;28;20279;-63
2022/06/04 09:40:02;;;;;;;0.00;0.00;;;21.50;99.90;;;;;;5042052;28;20134;-63
2022/06/04 09:42:30;;;;;;;0.00;0.00;;;21.90;99.90;;;;;;5041961;28;20423;-57
2022/06/04 09:45:01;;;;;;;0.00;0.00;;;21.80;99.90;;;;;;5037708;28;20100;-67
2022/06/04 09:47:47;;;;;;;0.00;0.00;;;21.80;99.90;;;;;;5028913;28;20056;-68
2022/06/04 09:50:35;;;;;;;0.00;0.00;;;22.00;99.90;;;;;;5022428;28;20135;-67
2022/06/04 09:53:09;;;;;;;0.00;0.00;;;22.00;99.90;;;;;;5020672;28;20063;-67
2022/06/04 09:55:37;;;;;;;0.00;0.00;;;21.90;99.90;;;;;;5022256;28;20406;-66
2022/06/04 09:58:07;;;;;;;0.00;0.00;;;22.00;99.90;;;;;;5022586;28;20088;-67
2022/06/04 10:00:36;;;;;;;0.00;0.00;;;22.00;99.90;;;;;;5021975;28;20431;-66
2022/06/04 10:03:10;;;;;;;0.10;0.10;;;21.90;99.90;;;;;;5021653;28;20111;-66
2022/06/04 10:05:36;;;;;;;0.00;0.00;;;22.10;99.90;;;;;;5037283;28;20515;-66
2022/06/04 10:08:11;;;;;;;0.00;0.00;;;22.00;99.90;;;;;;5021196;28;20044;-66
2022/06/04 10:10:38;;;;;;;0.00;0.00;;;21.70;99.90;;;;;;5021838;28;20049;-67
2022/06/04 10:16:41;;;;;;;0.00;0.00;;;21.50;99.90;;;;;;5021237;28;20053;-58
2022/06/04 10:19:12;;;;;;;0.00;0.00;;;21.60;99.90;;;;;;5021322;28;20171;-67
2022/06/04 10:21:41;;;;;;;0.00;0.00;;;21.70;99.90;;;;;;5020369;28;20120;-68
2022/06/04 10:24:29;;;;;;;0.00;0.00;;;21.80;99.90;;;;;;5020841;28;20052;-67
2022/06/04 10:27:29;;;;;;;0.00;0.00;;;22.30;99.90;;;;;;5021672;28;20069;-67
2022/06/04 10:30:04;;;;;;;0.00;0.00;;;22.50;99.90;;;;;;5036997;28;20502;-68
2022/06/04 10:32:44;;;;;;;0.00;0.00;;;22.30;99.90;;;;;;5021012;28;20049;-68
2022/06/04 10:35:38;;;;;;;0.00;0.00;;;22.40;99.90;;;;;;5036899;28;20593;-68
2022/06/04 10:38:36;;;;;;;0.00;0.00;;;22.60;99.90;;;;;;5020572;28;20096;-67
2022/06/04 10:41:13;;;;;;;0.00;0.00;;;22.30;99.90;;;;;;5020247;28;20492;-67
2022/06/04 10:43:41;;;;;;;0.00;0.00;;;22.50;99.90;;;;;;5021229;28;20045;-72
2022/06/04 10:46:17;;;;;;;0.00;0.00;;;22.80;99.90;;;;;;5032558;28;20511;-55
2022/06/04 10:49:16;;;;;;;0.00;0.00;;;23.30;99.90;;;;;;5021712;28;20095;-70
2022/06/04 10:52:19;;;;;;;0.00;0.00;;;23.70;99.90;;;;;;5020845;28;20065;-70
2022/06/04 10:55:05;;;;;;;0.00;0.00;;;23.80;99.90;;;;;;5020666;28;20040;-60
2022/06/04 10:57:33;;;;;;;0.00;0.00;;;23.80;99.90;;;;;;5021157;28;20049;-60
2022/06/04 11:00:20;;;;;;;0.00;0.00;;;23.80;99.90;;;;;;5019725;28;20103;-61
2022/06/04 11:02:46;;;;;;;0.00;0.00;;;24.10;99.90;;;;;;5021135;28;20144;-60
2022/06/04 11:05:17;;;;;;;0.00;0.00;;;24.20;99.90;;;;;;5021087;28;20144;-68
2022/06/04 11:08:15;;;;;;;0.00;0.00;;;24.00;99.90;;;;;;5002863;28;20437;-74
2022/06/04 11:10:49;;;;;;;0.00;0.00;;;23.80;99.90;;;;;;5021190;28;20660;-74
2022/06/04 11:13:24;;;;;;;0.00;0.00;;;24.00;99.90;;;;;;5024978;28;20037;-73
2022/06/04 11:16:09;;;;;;;0.00;0.00;;;23.70;99.90;;;;;;5020555;28;20240;-72
2022/06/04 11:18:40;;;;;;;0.00;0.00;;;24.00;99.90;;;;;;5020594;28;20050;-73
2022/06/04 11:21:12;;;;;;;0.05;0.05;;;23.90;99.90;;;;;;5020852;28;20868;-75
2022/06/04 11:23:55;;;;;;;0.00;0.00;;;24.10;99.90;;;;;;5001703;28;20058;-77
2022/06/04 11:26:31;;;;;;;0.00;0.00;;;24.00;99.90;;;;;;5020769;28;20046;-73
2022/06/04 11:28:59;;;;;;;0.00;0.00;;;24.20;99.90;;;;;;5020424;28;20050;-72
2022/06/04 11:31:39;;;;;;;0.00;0.00;;;24.30;99.90;;;;;;5020545;28;20037;-73
2022/06/04 11:34:23;;;;;;;0.00;0.00;;;24.10;99.90;;;;;;5020350;28;20045;-73
2022/06/04 11:37:13;;;;;;;0.00;0.00;;;23.80;99.90;;;;;;5019110;28;20111;-72
2022/06/04 11:39:58;;;;;;;0.00;0.00;;;24.00;99.90;;;;;;5017944;28;20041;-73
2022/06/04 11:42:48;;;;;;;0.00;0.00;;;24.00;99.90;;;;;;5020360;28;20124;-73
2022/06/04 11:45:17;;;;;;;0.05;0.05;;;23.90;99.90;;;;;;5024591;28;20180;-73
2022/06/04 11:47:52;;;;;;;0.00;0.00;;;23.80;99.90;;;;;;5027960;28;20117;-72
2022/06/04 11:50:41;;;;;;;0.00;0.00;;;23.70;99.90;;;;;;5019556;28;20140;-77
2022/06/04 11:53:38;;;;;;;0.30;0.25;;;23.60;99.90;;;;;;5019575;28;20044;-75
2022/06/04 11:56:15;;;;;;;0.00;0.00;;;23.50;99.90;;;;;;5039206;28;20060;-75
2022/06/04 11:59:03;;;;;;;0.00;0.00;;;23.40;99.90;;;;;;5038966;28;20045;-76
2022/06/04 12:01:34;;;;;;;0.00;0.00;;;23.40;99.90;;;;;;5037933;28;20068;-77
2022/06/04 12:04:41;;;;;;;0.00;0.00;;;23.40;99.90;;;;;;5039757;28;20053;-76
2022/06/04 12:07:15;;;;;;;0.00;0.00;;;23.60;99.90;;;;;;5023532;28;20478;-75
2022/06/04 12:09:48;;;;;;;0.00;0.00;;;23.30;99.90;;;;;;5038944;28;20041;-75
2022/06/04 12:12:37;;;;;;;0.00;0.00;;;23.30;99.90;;;;;;5040408;28;20037;-76
2022/06/04 12:15:03;;;;;;;0.00;0.00;;;23.60;99.90;;;;;;5036034;28;20106;-76
2022/06/04 12:17:46;;;;;;;0.00;0.00;;;23.60;99.90;;;;;;5028223;28;20038;-76
2022/06/04 12:26:38;;;;;;;0.10;0.10;;;23.60;99.90;;;;;;5043901;28;20141;-75
2022/06/04 12:29:31;;;;;;;0.00;0.00;;;23.70;99.90;;;;;;5043950;28;20041;-77
2022/06/04 12:32:29;;;;;;;0.00;0.00;;;23.50;99.90;;;;;;5043005;28;20115;-70
2022/06/04 12:35:09;;;;;;;0.00;0.00;;;23.60;99.90;;;;;;5043314;28;20049;-76
2022/06/04 12:37:38;;;;;;;0.00;0.00;;;23.50;99.90;;;;;;5043165;28;20419;-75
2022/06/04 12:40:19;;;;;;;0.00;0.00;;;23.50;99.90;;;;;;5043194;28;20556;-75
2022/06/04 12:43:14;;;;;;;0.00;0.00;;;23.10;99.90;;;;;;5043594;28;20375;-75
2022/06/04 12:45:48;;;;;;;0.00;0.00;;;23.40;99.90;;;;;;5036782;28;20174;-75
2022/06/04 12:48:29;;;;;;;;;;;23.40;99.90;;;;;;5026606;28;20084;-75
2022/06/04 12:51:07;;;;;;;0.00;0.00;;;23.40;99.90;;;;;;5023298;28;19928;-74
2022/06/04 12:53:45;;;;;;;0.00;0.00;;;23.30;99.90;;;;;;5021997;28;20842;-71
2022/06/04 12:56:40;;;;;;;0.00;0.00;;;23.20;99.90;;;;;;5024190;28;20043;-74
2022/06/04 12:59:36;;;;;;;0.00;0.00;;;23.10;99.90;;;;;;5022358;28;20069;-69
2022/06/04 13:02:22;;;;;;;0.00;0.00;;;22.90;99.90;;;;;;5022929;28;20049;-69
2022/06/04 13:04:48;;;;;;;0.00;0.00;;;22.90;99.90;;;;;;5027344;28;20102;-69
2022/06/04 13:07:25;;;;;;;0.00;0.00;;;22.70;99.90;;;;;;5028071;28;20041;-69
2022/06/04 13:10:03;;;;;;;0.00;0.00;;;22.70;99.90;;;;;;5029712;28;20396;-69
2022/06/04 13:12:29;;;;;;;0.00;0.00;;;22.70;99.90;;;;;;5028361;28;20033;-68
2022/06/04 13:15:33;;;;;;;0.00;0.00;;;22.60;99.90;;;;;;5030150;28;20107;-69
2022/06/04 13:17:59;;;;;;;0.00;0.00;;;22.60;99.90;;;;;;5021575;28;20631;-69
2022/06/04 13:20:31;;;;;;;0.00;0.00;;;22.60;99.90;;;;;;5029546;28;20159;-69
2022/06/04 13:23:24;;;;;;;0.00;0.00;;;22.40;99.90;;;;;;5028521;28;20056;-68
2022/06/04 13:26:11;;;;;;;0.00;0.00;;;22.30;99.90;;;;;;5029016;28;20041;-68
2022/06/04 13:28:42;;;;;;;0.00;0.00;;;22.60;99.90;;;;;;5027237;28;20037;-69
2022/06/04 13:31:24;;;;;;;0.03;0.03;;;23.00;99.90;;;;;;5027978;28;20396;-68
2022/06/04 13:33:52;;;;;;;0.00;0.00;;;23.00;99.90;;;;;;5028327;28;20047;-68
2022/06/04 13:36:26;;;;;;;0.00;0.00;;;23.00;99.90;;;;;;5027401;28;20121;-68
2022/06/04 13:39:00;;;;;;;0.00;0.00;;;23.10;99.90;;;;;;5029372;28;20033;-68